Time;durP1;ratioP1;P1;durP2;ratioP2;P2;SDS_P1;SDS_P2;PMS_P1;PMS_P2;Temp;Humidity;BMP_temperature;BMP_pressure;BME280_temperature;BME280_humidity;BME280_pressure;Samples;Min_cycle;Max_cycle;Signal;HPM_P1;HPM_P2
2023/08/08 00:02:02;;;;;;;;;;;17.70;73.10;;;;;;5042861;28;19929;-79
2023/08/08 00:04:29;;;;;;;;;;;17.70;73.10;;;;;;5046973;28;19932;-78
2023/08/08 00:06:56;;;;;;;;;;;17.60;73.00;;;;;;5046992;28;20381;-78
2023/08/08 00:09:22;;;;;;;;;;;17.60;73.00;;;;;;5045780;28;20007;-78
2023/08/08 00:11:49;;;;;;;;;;;17.60;73.10;;;;;;5047346;28;20567;-79
2023/08/08 00:14:17;;;;;;;;;;;17.60;73.20;;;;;;5047297;28;19932;-79
2023/08/08 00:16:43;;;;;;;;;;;17.60;73.30;;;;;;5045245;28;19936;-79
2023/08/08 00:19:10;;;;;;;;;;;17.60;73.30;;;;;;5045810;28;19933;-79
2023/08/08 00:21:36;;;;;;;;;;;17.60;73.40;;;;;;5049205;28;19948;-78
2023/08/08 00:24:03;;;;;;;;;;;17.50;73.40;;;;;;5047814;28;19941;-78
2023/08/08 00:26:29;;;;;;;;;;;17.60;73.50;;;;;;5050336;28;19932;-78
2023/08/08 00:28:56;;;;;;;;;;;17.50;73.60;;;;;;5044121;28;19935;-78
2023/08/08 00:31:24;;;;;;;;;;;17.50;73.70;;;;;;5045204;28;20356;-78
2023/08/08 00:33:50;;;;;;;;;;;17.50;73.70;;;;;;5040584;28;19935;-78
2023/08/08 00:36:17;;;;;;;;;;;17.50;73.80;;;;;;5046092;28;20535;-78
2023/08/08 00:38:43;;;;;;;;;;;17.50;73.90;;;;;;5043444;28;19936;-78
2023/08/08 00:41:10;;;;;;;;;;;17.50;73.80;;;;;;5045235;28;19929;-78
2023/08/08 00:43:36;;;;;;;;;;;17.50;73.80;;;;;;5046861;28;19928;-78
2023/08/08 00:46:03;;;;;;;;;;;17.50;73.90;;;;;;5050839;28;19929;-78
2023/08/08 00:48:31;;;;;;;;;;;17.40;73.90;;;;;;5049750;28;19940;-77
2023/08/08 00:50:58;;;;;;;;;;;17.40;74.10;;;;;;5051024;28;19953;-78
2023/08/08 00:53:26;;;;;;;;;;;17.40;74.10;;;;;;5048921;28;19937;-79
2023/08/08 00:55:52;;;;;;;;;;;17.40;74.20;;;;;;5051347;28;19929;-78
2023/08/08 00:58:19;;;;;;;;;;;17.40;74.40;;;;;;5047887;28;19928;-78
2023/08/08 01:00:46;;;;;;;;;;;17.30;74.20;;;;;;5049320;28;19936;-77
2023/08/08 01:03:12;;;;;;;;;;;17.40;74.30;;;;;;5043457;28;19932;-78
2023/08/08 01:05:43;;;;;;;;;;;17.40;74.40;;;;;;5047360;28;19928;-79
2023/08/08 01:08:09;;;;;;;;;;;17.40;74.50;;;;;;5051706;28;20136;-78
2023/08/08 01:10:38;;;;;;;;;;;17.30;74.60;;;;;;5043688;28;19984;-78
2023/08/08 01:13:06;;;;;;;;;;;17.30;74.60;;;;;;5052366;28;20386;-78
2023/08/08 01:15:35;;;;;;;;;;;17.30;74.80;;;;;;5050627;28;19929;-78
2023/08/08 01:18:02;;;;;;;;;;;17.30;74.90;;;;;;5051656;28;20402;-78
2023/08/08 01:20:29;;;;;;;;;;;17.20;74.70;;;;;;5049761;28;19933;-78
2023/08/08 01:23:02;;;;;;;;;;;17.30;74.90;;;;;;5050045;28;19929;-78
2023/08/08 01:25:30;;;;;;;;;;;17.30;75.00;;;;;;5050665;28;19935;-79
2023/08/08 01:27:57;;;;;;;;;;;17.20;75.00;;;;;;5051243;28;20408;-79
2023/08/08 01:30:23;;;;;;;;;;;17.20;75.20;;;;;;5054499;28;20518;-79
2023/08/08 01:32:50;;;;;;;;;;;17.20;75.30;;;;;;5049162;28;19939;-77
2023/08/08 01:35:17;;;;;;;;;;;17.20;75.20;;;;;;5049757;28;19928;-79
2023/08/08 01:37:45;;;;;;;;;;;17.20;75.20;;;;;;5051187;28;20011;-78
2023/08/08 01:40:13;;;;;;;;;;;17.20;75.30;;;;;;5047890;28;19933;-78
2023/08/08 01:42:42;;;;;;;;;;;17.20;75.30;;;;;;5053148;28;19928;-79
2023/08/08 01:45:09;;;;;;;;;;;17.10;75.40;;;;;;5050165;28;19928;-80
2023/08/08 01:47:36;;;;;;;;;;;17.20;75.40;;;;;;5054129;28;19937;-79
2023/08/08 01:50:03;;;;;;;;;;;17.10;75.50;;;;;;5048240;28;19940;-79
2023/08/08 01:52:29;;;;;;;;;;;17.10;75.60;;;;;;5054269;28;20086;-79
2023/08/08 01:54:56;;;;;;;;;;;17.10;75.50;;;;;;5052965;28;19936;-77
2023/08/08 01:57:22;;;;;;;;;;;17.10;75.50;;;;;;5051283;28;19940;-79
2023/08/08 01:59:50;;;;;;;;;;;17.10;75.60;;;;;;5049228;28;19959;-79
2023/08/08 02:02:17;;;;;;;;;;;17.10;75.70;;;;;;5048567;28;19957;-79
2023/08/08 02:04:44;;;;;;;;;;;17.00;75.80;;;;;;5052393;28;19931;-79
2023/08/08 02:07:10;;;;;;;;;;;17.00;75.80;;;;;;5051412;28;19928;-78
2023/08/08 02:09:37;;;;;;;;;;;17.00;75.90;;;;;;5052140;28;19929;-80
2023/08/08 02:12:04;;;;;;;;;;;17.00;76.00;;;;;;5050171;28;19936;-77
2023/08/08 02:14:31;;;;;;;;;;;17.00;76.20;;;;;;5050543;28;19939;-78
2023/08/08 02:16:59;;;;;;;;;;;17.00;76.20;;;;;;5048692;28;19928;-77
2023/08/08 02:19:25;;;;;;;;;;;17.00;76.20;;;;;;5051059;28;19933;-78
2023/08/08 02:21:52;;;;;;;;;;;17.00;76.30;;;;;;5046874;28;20023;-78
2023/08/08 02:24:18;;;;;;;;;;;16.90;76.40;;;;;;5047236;28;19928;-79
2023/08/08 02:26:45;;;;;;;;;;;17.00;76.40;;;;;;5045475;28;19933;-79
2023/08/08 02:29:11;;;;;;;;;;;16.90;76.30;;;;;;5049035;28;19928;-79
2023/08/08 02:31:38;;;;;;;;;;;16.90;76.40;;;;;;5051570;28;19928;-78
2023/08/08 02:34:06;;;;;;;;;;;16.90;76.60;;;;;;5045715;28;19929;-78
2023/08/08 02:36:33;;;;;;;;;;;16.90;76.50;;;;;;5050588;28;19932;-78
2023/08/08 02:38:59;;;;;;;;;;;16.90;77.60;;;;;;5048080;28;19929;-78
2023/08/08 02:41:26;;;;;;;;;;;16.80;76.60;;;;;;5046926;28;19932;-78
2023/08/08 02:43:53;;;;;;;;;;;16.90;76.60;;;;;;5046515;28;19933;-78
2023/08/08 02:46:19;;;;;;;;;;;16.80;76.60;;;;;;5050533;28;19932;-79
2023/08/08 02:48:46;;;;;;;;;;;16.80;76.70;;;;;;5049032;28;19928;-79
2023/08/08 02:51:13;;;;;;;;;;;16.80;76.80;;;;;;5048946;28;19940;-79
2023/08/08 02:53:40;;;;;;;;;;;16.80;76.90;;;;;;5052292;28;19940;-80
2023/08/08 02:56:07;;;;;;;;;;;16.80;76.90;;;;;;5048987;28;19948;-79
2023/08/08 02:58:33;;;;;;;;;;;16.80;76.90;;;;;;5051808;28;19994;-79
2023/08/08 03:01:00;;;;;;;;;;;16.80;77.00;;;;;;5049322;28;20017;-78
2023/08/08 03:03:26;;;;;;;;;;;16.80;77.10;;;;;;5046112;28;19935;-78
2023/08/08 03:05:53;;;;;;;;;;;16.70;77.00;;;;;;5050914;28;19932;-80
2023/08/08 03:08:21;;;;;;;;;;;16.70;77.00;;;;;;5048334;28;19928;-80
2023/08/08 03:10:47;;;;;;;;;;;16.70;77.10;;;;;;5047794;28;19936;-79
2023/08/08 03:13:14;;;;;;;;;;;16.70;77.30;;;;;;5050144;28;19933;-78
2023/08/08 03:15:40;;;;;;;;;;;16.70;77.40;;;;;;5054708;28;19940;-80
2023/08/08 03:18:07;;;;;;;;;;;16.70;78.10;;;;;;5051272;28;19928;-79
2023/08/08 03:20:33;;;;;;;;;;;16.70;77.40;;;;;;5054056;28;19951;-79
2023/08/08 03:23:00;;;;;;;;;;;16.70;77.60;;;;;;5050942;28;19928;-79
2023/08/08 03:25:28;;;;;;;;;;;16.60;77.50;;;;;;5049782;28;19928;-78
2023/08/08 03:27:54;;;;;;;;;;;16.60;77.60;;;;;;5044949;28;19929;-79
2023/08/08 03:30:21;;;;;;;;;;;16.60;77.70;;;;;;5050817;28;19936;-78
2023/08/08 03:32:47;;;;;;;;;;;16.60;77.70;;;;;;5047420;28;19928;-78
2023/08/08 03:35:14;;;;;;;;;;;16.60;77.80;;;;;;5047236;28;19928;-80
2023/08/08 03:37:41;;;;;;;;;;;16.60;77.90;;;;;;5050321;28;20583;-79
2023/08/08 03:40:08;;;;;;;;;;;16.60;78.00;;;;;;5047902;28;19936;-79
2023/08/08 03:42:36;;;;;;;;;;;16.60;78.10;;;;;;5052649;28;19986;-79
2023/08/08 03:45:03;;;;;;;;;;;16.50;78.10;;;;;;5045987;28;19932;-78
2023/08/08 03:47:29;;;;;;;;;;;16.50;78.20;;;;;;5046084;28;19928;-78
2023/08/08 03:49:57;;;;;;;;;;;16.60;78.20;;;;;;5047237;28;19928;-78
2023/08/08 03:52:23;;;;;;;;;;;16.60;78.30;;;;;;5051433;28;19935;-80
2023/08/08 03:54:50;;;;;;;;;;;16.50;78.30;;;;;;5050665;28;19929;-78
2023/08/08 03:57:17;;;;;;;;;;;16.50;78.40;;;;;;5050609;28;19932;-78
2023/08/08 03:59:44;;;;;;;;;;;16.50;78.50;;;;;;5046816;28;20553;-78
2023/08/08 04:02:11;;;;;;;;;;;16.50;78.50;;;;;;5045671;28;20027;-80
2023/08/08 04:04:38;;;;;;;;;;;16.40;78.50;;;;;;5046331;28;19932;-79
2023/08/08 04:07:05;;;;;;;;;;;16.40;78.60;;;;;;5048488;28;19928;-78
2023/08/08 04:09:32;;;;;;;;;;;16.50;78.70;;;;;;5050849;28;19932;-77
2023/08/08 04:11:58;;;;;;;;;;;16.40;78.70;;;;;;5051258;28;19924;-79
2023/08/08 04:14:25;;;;;;;;;;;16.40;78.80;;;;;;5049934;28;19932;-78
2023/08/08 04:16:52;;;;;;;;;;;16.40;78.90;;;;;;5048785;28;19929;-79
2023/08/08 04:19:19;;;;;;;;;;;16.40;79.00;;;;;;5048161;28;19928;-78
2023/08/08 04:21:46;;;;;;;;;;;16.40;78.90;;;;;;5048310;28;19935;-79
2023/08/08 04:24:12;;;;;;;;;;;16.40;79.00;;;;;;5047629;28;19929;-80
2023/08/08 04:26:39;;;;;;;;;;;16.40;79.10;;;;;;5047848;28;19933;-80
2023/08/08 04:29:06;;;;;;;;;;;16.40;79.20;;;;;;5048299;28;19933;-79
2023/08/08 04:31:32;;;;;;;;;;;16.30;79.30;;;;;;5053529;28;19940;-79
2023/08/08 04:34:00;;;;;;;;;;;16.30;79.30;;;;;;5046601;28;19932;-79
2023/08/08 04:36:27;;;;;;;;;;;16.30;79.40;;;;;;5047650;28;19935;-81
2023/08/08 04:38:54;;;;;;;;;;;16.30;79.40;;;;;;5047832;28;19941;-79
2023/08/08 04:41:20;;;;;;;;;;;16.30;79.50;;;;;;5046857;28;19928;-79
2023/08/08 04:43:47;;;;;;;;;;;16.30;79.60;;;;;;5045866;28;19932;-80
2023/08/08 04:46:14;;;;;;;;;;;16.30;79.60;;;;;;5047033;28;20321;-80
2023/08/08 04:48:40;;;;;;;;;;;16.30;79.60;;;;;;5050773;28;19933;-80
2023/08/08 04:51:09;;;;;;;;;;;16.30;79.80;;;;;;5049249;28;19944;-79
2023/08/08 04:53:35;;;;;;;;;;;16.30;79.90;;;;;;5052221;28;19936;-80
2023/08/08 04:56:02;;;;;;;;;;;16.20;79.90;;;;;;5054367;28;19929;-80
2023/08/08 04:58:28;;;;;;;;;;;16.20;79.80;;;;;;5054987;28;19929;-80
2023/08/08 05:00:56;;;;;;;;;;;16.20;80.00;;;;;;5053187;28;19941;-79
2023/08/08 05:03:22;;;;;;;;;;;16.20;80.00;;;;;;5046893;28;19998;-79
2023/08/08 05:05:49;;;;;;;;;;;16.20;80.10;;;;;;5056203;28;19929;-80
2023/08/08 05:08:17;;;;;;;;;;;16.20;80.10;;;;;;5050340;28;20645;-79
2023/08/08 05:10:44;;;;;;;;;;;16.20;80.20;;;;;;5050605;28;20525;-80
2023/08/08 05:13:10;;;;;;;;;;;16.20;80.20;;;;;;5050366;28;19948;-81
2023/08/08 05:15:37;;;;;;;;;;;16.20;80.40;;;;;;5053405;28;19935;-79
2023/08/08 05:18:04;;;;;;;;;;;16.20;80.50;;;;;;5049309;28;20608;-77
2023/08/08 05:20:30;;;;;;;;;;;16.20;81.30;;;;;;5050107;28;19929;-81
2023/08/08 05:22:57;;;;;;;;;;;16.20;80.70;;;;;;5055562;28;19928;-81
2023/08/08 05:25:25;;;;;;;;;;;16.10;80.80;;;;;;5054809;28;19928;-81
2023/08/08 05:27:53;;;;;;;;;;;16.10;81.00;;;;;;5057326;28;19929;-80
2023/08/08 05:30:19;;;;;;;;;;;16.10;81.00;;;;;;5052257;28;19932;-80
2023/08/08 05:32:46;;;;;;;;;;;16.10;81.10;;;;;;5050899;28;19932;-82
2023/08/08 05:35:12;;;;;;;;;;;16.10;81.10;;;;;;5050305;28;19929;-81
2023/08/08 05:37:39;;;;;;;;;;;16.10;81.10;;;;;;5053181;28;19928;-82
2023/08/08 05:40:06;;;;;;;;;;;16.10;81.20;;;;;;5057195;28;19936;-81
2023/08/08 05:42:34;;;;;;;;;;;16.10;81.10;;;;;;5052697;28;19924;-83
2023/08/08 05:45:01;;;;;;;;;;;16.10;81.20;;;;;;5050766;28;20440;-80
2023/08/08 05:47:27;;;;;;;;;;;16.10;81.20;;;;;;5050933;28;19929;-79
2023/08/08 05:49:54;;;;;;;;;;;16.10;81.20;;;;;;5050461;28;19928;-81
2023/08/08 05:52:21;;;;;;;;;;;16.10;81.20;;;;;;5055226;28;19928;-81
2023/08/08 05:54:47;;;;;;;;;;;16.10;81.30;;;;;;5052308;28;19928;-82
2023/08/08 05:57:14;;;;;;;;;;;16.10;81.40;;;;;;5054494;28;19939;-81
2023/08/08 05:59:44;;;;;;;;;;;16.10;81.30;;;;;;5053573;28;19936;-82
2023/08/08 06:02:11;;;;;;;;;;;16.00;81.30;;;;;;5053550;28;19931;-83
2023/08/08 06:04:37;;;;;;;;;;;16.00;81.30;;;;;;5050500;28;20370;-81
2023/08/08 06:07:04;;;;;;;;;;;16.00;81.40;;;;;;5053749;28;20424;-82
2023/08/08 06:09:32;;;;;;;;;;;16.00;81.40;;;;;;5051486;28;19940;-81
2023/08/08 06:11:59;;;;;;;;;;;16.10;81.60;;;;;;5051868;28;19946;-82
2023/08/08 06:14:25;;;;;;;;;;;16.10;81.60;;;;;;5054152;28;19936;-82
2023/08/08 06:16:53;;;;;;;;;;;16.10;81.60;;;;;;5051238;28;19929;-82
2023/08/08 06:19:20;;;;;;;;;;;16.00;81.60;;;;;;5050657;28;19979;-83
2023/08/08 06:21:47;;;;;;;;;;;16.00;81.80;;;;;;5052932;28;19929;-82
2023/08/08 06:24:14;;;;;;;;;;;16.10;81.80;;;;;;5050922;28;19952;-81
2023/08/08 06:26:40;;;;;;;;;;;16.00;81.80;;;;;;5054079;28;19929;-80
2023/08/08 06:29:07;;;;;;;;;;;16.00;81.80;;;;;;5050169;28;19929;-82
2023/08/08 06:31:33;;;;;;;;;;;16.00;81.80;;;;;;5056359;28;19932;-82
2023/08/08 06:34:01;;;;;;;;;;;16.00;81.90;;;;;;5049483;28;19931;-82
2023/08/08 06:36:28;;;;;;;;;;;16.00;81.90;;;;;;5051721;28;20350;-81
2023/08/08 06:38:54;;;;;;;;;;;16.00;81.90;;;;;;5051785;28;19925;-82
2023/08/08 06:41:21;;;;;;;;;;;16.00;82.00;;;;;;5051019;28;20285;-82
2023/08/08 06:43:47;;;;;;;;;;;16.00;82.00;;;;;;5052992;28;20302;-82
2023/08/08 06:46:14;;;;;;;;;;;16.10;82.10;;;;;;5054561;28;20492;-83
2023/08/08 06:48:42;;;;;;;;;;;16.10;82.10;;;;;;5053093;28;20585;-82
2023/08/08 06:51:10;;;;;;;;;;;16.10;82.10;;;;;;5053785;28;19935;-83
2023/08/08 06:53:37;;;;;;;;;;;16.10;82.20;;;;;;5053123;28;20006;-83
2023/08/08 06:56:03;;;;;;;;;;;16.10;82.20;;;;;;5052295;28;19929;-82
2023/08/08 06:58:30;;;;;;;;;;;16.10;82.20;;;;;;5054213;28;20390;-82
2023/08/08 07:00:57;;;;;;;;;;;16.10;82.20;;;;;;5050498;28;20418;-82
2023/08/08 07:03:23;;;;;;;;;;;16.10;82.20;;;;;;5050462;28;20036;-82
2023/08/08 07:05:51;;;;;;;;;;;16.10;82.30;;;;;;5049077;28;19956;-82
2023/08/08 07:08:19;;;;;;;;;;;16.20;82.40;;;;;;5053338;28;19928;-83
2023/08/08 07:10:46;;;;;;;;;;;16.20;82.40;;;;;;5050608;28;19933;-82
2023/08/08 07:13:13;;;;;;;;;;;16.20;82.30;;;;;;5051042;28;19933;-82
2023/08/08 07:15:39;;;;;;;;;;;16.20;82.30;;;;;;5047201;28;19933;-83
2023/08/08 07:18:06;;;;;;;;;;;16.20;82.20;;;;;;5042830;28;19939;-84
2023/08/08 07:20:33;;;;;;;;;;;16.20;82.30;;;;;;5052474;28;19933;-83
2023/08/08 07:23:01;;;;;;;;;;;16.20;82.30;;;;;;5052328;28;19929;-83
2023/08/08 07:25:29;;;;;;;;;;;16.20;82.30;;;;;;5052499;28;19941;-81
2023/08/08 07:27:55;;;;;;;;;;;16.30;82.30;;;;;;5048322;28;20402;-82
2023/08/08 07:30:22;;;;;;;;;;;16.30;82.30;;;;;;5051591;28;20402;-81
2023/08/08 07:32:48;;;;;;;;;;;16.20;82.20;;;;;;5050914;28;20617;-82
2023/08/08 07:35:15;;;;;;;;;;;16.30;82.30;;;;;;5051363;28;19933;-81
2023/08/08 07:37:43;;;;;;;;;;;16.30;82.30;;;;;;5050487;28;19933;-82
2023/08/08 07:40:16;;;;;;;;;;;16.30;82.30;;;;;;5051629;28;20330;-83
2023/08/08 07:42:45;;;;;;;;;;;16.40;82.30;;;;;;5047755;28;19928;-81
2023/08/08 07:45:11;;;;;;;;;;;16.40;82.30;;;;;;5049629;28;19929;-81
2023/08/08 07:47:38;;;;;;;;;;;16.40;82.30;;;;;;5052542;28;20683;-82
2023/08/08 07:50:06;;;;;;;;;;;16.40;82.30;;;;;;5053059;28;19929;-84
2023/08/08 07:52:33;;;;;;;;;;;16.40;82.20;;;;;;5052725;28;20021;-84
2023/08/08 07:54:59;;;;;;;;;;;16.40;82.10;;;;;;5050114;28;19936;-84
2023/08/08 07:57:27;;;;;;;;;;;16.40;82.00;;;;;;5051077;28;20314;-84
2023/08/08 07:59:55;;;;;;;;;;;16.40;82.00;;;;;;5054471;28;19936;-83
2023/08/08 08:02:21;;;;;;;;;;;16.50;82.00;;;;;;5052548;28;19935;-82
2023/08/08 08:04:48;;;;;;;;;;;16.50;81.80;;;;;;5054752;28;19925;-82
2023/08/08 08:07:14;;;;;;;;;;;16.60;81.80;;;;;;5055277;28;19925;-82
2023/08/08 08:09:42;;;;;;;;;;;16.60;81.70;;;;;;5056892;28;19932;-83
2023/08/08 08:12:09;;;;;;;;;;;16.50;81.50;;;;;;5053870;28;19929;-82
2023/08/08 08:14:36;;;;;;;;;;;16.60;81.40;;;;;;5050561;28;19933;-81
2023/08/08 08:17:04;;;;;;;;;;;16.60;81.20;;;;;;5053395;28;19929;-82
2023/08/08 08:19:31;;;;;;;;;;;16.60;81.00;;;;;;5050612;28;19928;-82
2023/08/08 08:21:57;;;;;;;;;;;16.70;80.90;;;;;;5053359;28;19929;-82
2023/08/08 08:24:24;;;;;;;;;;;16.70;80.70;;;;;;5054441;28;20024;-81
2023/08/08 08:26:51;;;;;;;;;;;16.70;80.60;;;;;;5049606;28;19967;-82
2023/08/08 08:29:18;;;;;;;;;;;16.70;81.00;;;;;;5053583;28;20515;-83
2023/08/08 08:31:45;;;;;;;;;;;16.70;80.90;;;;;;5048616;28;20410;-82
2023/08/08 08:34:12;;;;;;;;;;;16.80;80.10;;;;;;5054967;28;19940;-82
2023/08/08 08:36:39;;;;;;;;;;;16.80;79.80;;;;;;5049387;28;20457;-83
2023/08/08 08:39:06;;;;;;;;;;;16.80;79.60;;;;;;5050940;28;20453;-85
2023/08/08 08:41:32;;;;;;;;;;;16.80;79.40;;;;;;5058470;28;19928;-83
2023/08/08 08:44:00;;;;;;;;;;;16.90;79.40;;;;;;5048085;28;19936;-81
2023/08/08 08:46:27;;;;;;;;;;;16.90;79.40;;;;;;5049692;28;19936;-82
2023/08/08 08:48:56;;;;;;;;;;;16.90;79.40;;;;;;5053354;28;20223;-83
2023/08/08 08:51:24;;;;;;;;;;;16.90;79.30;;;;;;5059708;28;19931;-82
2023/08/08 08:53:50;;;;;;;;;;;17.00;79.40;;;;;;5059355;28;19936;-82
2023/08/08 08:56:17;;;;;;;;;;;17.00;79.30;;;;;;5056537;28;19936;-82
2023/08/08 08:58:44;;;;;;;;;;;17.00;79.30;;;;;;5061271;28;19935;-84
2023/08/08 09:01:10;;;;;;;;;;;17.00;79.30;;;;;;5051253;28;20393;-84
2023/08/08 09:03:37;;;;;;;;;;;17.10;79.40;;;;;;5047445;28;19955;-80
2023/08/08 09:06:05;;;;;;;;;;;17.10;79.40;;;;;;5053478;28;20818;-83
2023/08/08 09:08:34;;;;;;;;;;;17.10;79.30;;;;;;5051263;28;19933;-80
2023/08/08 09:11:01;;;;;;;;;;;17.20;79.20;;;;;;5047304;28;20342;-83
2023/08/08 09:13:27;;;;;;;;;;;17.20;79.10;;;;;;5055536;28;19933;-80
2023/08/08 09:15:55;;;;;;;;;;;17.20;78.90;;;;;;5050902;28;19998;-83
2023/08/08 09:18:24;;;;;;;;;;;17.30;78.80;;;;;;5048859;28;19967;-81
2023/08/08 09:20:50;;;;;;;;;;;17.40;78.80;;;;;;5048011;28;19929;-81
2023/08/08 09:23:17;;;;;;;;;;;17.40;78.80;;;;;;5050607;28;19971;-81
2023/08/08 09:25:45;;;;;;;;;;;17.40;78.70;;;;;;5055685;28;19924;-84
2023/08/08 09:28:11;;;;;;;;;;;17.40;78.60;;;;;;5052668;28;19939;-82
2023/08/08 09:30:38;;;;;;;;;;;17.50;78.50;;;;;;5051383;28;19925;-81
2023/08/08 09:33:05;;;;;;;;;;;17.50;78.40;;;;;;5048873;28;19943;-81
2023/08/08 09:35:32;;;;;;;;;;;17.60;78.20;;;;;;5053273;28;20402;-81
2023/08/08 09:37:58;;;;;;;;;;;17.60;78.10;;;;;;5056805;28;20426;-79
2023/08/08 09:40:25;;;;;;;;;;;17.70;77.90;;;;;;5052757;28;19989;-80
2023/08/08 09:42:53;;;;;;;;;;;17.80;77.90;;;;;;5052034;28;19932;-80
2023/08/08 09:45:20;;;;;;;;;;;17.80;77.50;;;;;;5049860;28;19933;-79
2023/08/08 09:47:47;;;;;;;;;;;17.90;77.50;;;;;;5052574;28;19952;-79
2023/08/08 09:50:13;;;;;;;;;;;17.90;78.00;;;;;;5049797;28;19936;-80
2023/08/08 09:52:40;;;;;;;;;;;18.00;77.00;;;;;;5053486;28;19932;-81
2023/08/08 09:55:07;;;;;;;;;;;18.10;76.90;;;;;;5053691;28;20594;-80
2023/08/08 09:57:34;;;;;;;;;;;18.10;76.60;;;;;;5052073;28;20424;-81
2023/08/08 10:00:02;;;;;;;;;;;18.20;76.20;;;;;;5050281;28;19928;-80
2023/08/08 10:02:30;;;;;;;;;;;18.20;76.00;;;;;;5048126;28;20042;-81
2023/08/08 10:04:58;;;;;;;;;;;18.30;75.80;;;;;;5054867;28;19936;-82
2023/08/08 10:07:24;;;;;;;;;;;18.30;75.30;;;;;;5049173;28;20286;-80
2023/08/08 10:09:51;;;;;;;;;;;18.30;75.20;;;;;;5050194;28;19940;-81
2023/08/08 10:12:17;;;;;;;;;;;18.30;75.10;;;;;;5049787;28;19932;-82
2023/08/08 10:14:45;;;;;;;;;;;18.40;74.90;;;;;;5049908;28;19929;-84
2023/08/08 10:17:15;;;;;;;;;;;18.40;74.80;;;;;;5050880;28;19929;-81
2023/08/08 10:19:50;;;;;;;;;;;18.40;74.50;;;;;;5052477;28;19928;-80
2023/08/08 10:22:20;;;;;;;;;;;18.40;74.20;;;;;;5049003;28;19935;-79
2023/08/08 10:24:48;;;;;;;;;;;18.50;74.00;;;;;;5056135;28;19932;-80
2023/08/08 10:27:15;;;;;;;;;;;18.50;73.70;;;;;;5049641;28;19928;-80
2023/08/08 10:29:41;;;;;;;;;;;18.50;73.60;;;;;;5051205;28;20633;-80
2023/08/08 10:32:08;;;;;;;;;;;18.50;73.80;;;;;;5054341;28;20535;-81
2023/08/08 10:34:40;;;;;;;;;;;18.60;73.20;;;;;;5050641;28;19936;-81
2023/08/08 10:37:10;;;;;;;;;;;18.60;72.40;;;;;;5050587;28;20024;-79
2023/08/08 10:39:36;;;;;;;;;;;18.70;72.40;;;;;;5053763;28;19928;-78
2023/08/08 10:42:04;;;;;;;;;;;18.70;72.10;;;;;;5051742;28;19929;-79
2023/08/08 10:44:31;;;;;;;;;;;18.80;71.60;;;;;;5052798;28;19936;-78
2023/08/08 10:46:58;;;;;;;;;;;18.90;71.40;;;;;;5058773;28;19933;-81
2023/08/08 10:49:24;;;;;;;;;;;18.90;71.00;;;;;;5053311;28;19925;-78
2023/08/08 10:51:52;;;;;;;;;;;19.00;70.70;;;;;;5053875;28;19928;-78
2023/08/08 10:54:20;;;;;;;;;;;19.10;70.60;;;;;;5051686;28;20036;-79
2023/08/08 10:56:50;;;;;;;;;;;19.20;70.60;;;;;;5057162;28;19958;-79
2023/08/08 10:59:18;;;;;;;;;;;19.20;70.60;;;;;;5057541;28;19925;-79
2023/08/08 11:01:48;;;;;;;;;;;19.20;70.30;;;;;;5058364;28;19935;-80
2023/08/08 11:04:16;;;;;;;;;;;19.30;69.70;;;;;;5060323;28;19959;-79
2023/08/08 11:06:42;;;;;;;;;;;19.40;69.50;;;;;;5061274;28;20357;-83
2023/08/08 11:09:10;;;;;;;;;;;19.40;69.40;;;;;;5057232;28;20409;-79
2023/08/08 11:11:38;;;;;;;;;;;19.50;68.90;;;;;;5056400;28;19947;-80
2023/08/08 11:14:14;;;;;;;;;;;19.50;68.30;;;;;;5052089;28;20608;-79
2023/08/08 11:16:41;;;;;;;;;;;19.60;67.70;;;;;;5054131;28;19929;-78
2023/08/08 11:19:08;;;;;;;;;;;19.70;67.80;;;;;;5053676;28;19944;-78
2023/08/08 11:21:35;;;;;;;;;;;19.70;67.80;;;;;;5053798;28;19971;-79
2023/08/08 11:24:02;;;;;;;;;;;19.80;66.40;;;;;;5059302;28;19951;-80
2023/08/08 11:26:31;;;;;;;;;;;19.80;66.10;;;;;;5065004;28;19931;-79
2023/08/08 11:28:58;;;;;;;;;;;19.90;65.20;;;;;;5053475;28;19964;-83
2023/08/08 11:31:25;;;;;;;;;;;20.00;64.70;;;;;;5059404;28;19925;-80
2023/08/08 11:33:51;;;;;;;;;;;20.00;65.20;;;;;;5060049;28;19929;-80
2023/08/08 11:36:18;;;;;;;;;;;20.10;65.10;;;;;;5059552;28;19929;-79
2023/08/08 11:38:44;;;;;;;;;;;20.10;64.50;;;;;;5059450;28;19929;-81
2023/08/08 11:41:11;;;;;;;;;;;20.20;64.70;;;;;;5060681;28;19929;-82
2023/08/08 11:43:39;;;;;;;;;;;20.20;64.40;;;;;;5061275;28;20004;-77
2023/08/08 11:46:09;;;;;;;;;;;20.30;64.70;;;;;;5056530;28;19929;-81
2023/08/08 11:48:36;;;;;;;;;;;20.30;65.00;;;;;;5057358;28;19925;-80
2023/08/08 11:51:04;;;;;;;;;;;20.30;64.10;;;;;;5054386;28;19929;-83
2023/08/08 11:53:30;;;;;;;;;;;20.40;64.30;;;;;;5059287;28;19925;-80
2023/08/08 11:55:58;;;;;;;;;;;20.40;64.30;;;;;;5055969;28;20520;-79
2023/08/08 11:58:25;;;;;;;;;;;20.40;64.20;;;;;;5053367;28;19932;-82
2023/08/08 12:00:54;;;;;;;;;;;20.50;64.20;;;;;;5048858;28;20624;-70
2023/08/08 12:03:21;;;;;;;;;;;20.60;63.30;;;;;;5048455;28;20441;-70
2023/08/08 12:05:47;;;;;;;;;;;20.60;63.30;;;;;;5047881;28;19929;-72
2023/08/08 12:08:17;;;;;;;;;;;20.70;63.10;;;;;;5050389;28;19936;-70
2023/08/08 12:10:48;;;;;;;;;;;20.70;62.70;;;;;;5046339;28;20012;-69
2023/08/08 12:13:14;;;;;;;;;;;20.70;62.90;;;;;;5049855;28;19932;-70
2023/08/08 12:15:43;;;;;;;;;;;20.80;63.10;;;;;;5046955;28;20326;-69
2023/08/08 12:18:11;;;;;;;;;;;20.90;63.10;;;;;;5045162;28;19936;-70
2023/08/08 12:20:37;;;;;;;;;;;21.00;62.50;;;;;;5047717;28;19942;-70
2023/08/08 12:23:04;;;;;;;;;;;21.00;61.90;;;;;;5045592;28;19929;-70
2023/08/08 12:25:30;;;;;;;;;;;21.10;62.10;;;;;;5048039;28;20310;-70
2023/08/08 12:27:57;;;;;;;;;;;21.10;61.90;;;;;;5044584;28;20325;-70
2023/08/08 12:30:23;;;;;;;;;;;21.20;61.20;;;;;;5046009;28;19929;-69
2023/08/08 12:32:50;;;;;;;;;;;21.30;60.90;;;;;;5047990;28;20003;-70
2023/08/08 12:35:18;;;;;;;;;;;21.30;60.60;;;;;;5043701;28;20590;-70
2023/08/08 12:37:44;;;;;;;;;;;21.40;60.20;;;;;;5047306;28;19928;-70
2023/08/08 12:40:11;;;;;;;;;;;21.40;59.80;;;;;;5045014;28;20414;-71
2023/08/08 12:42:38;;;;;;;;;;;21.50;59.70;;;;;;5047177;28;19928;-83
2023/08/08 12:45:05;;;;;;;;;;;21.50;59.40;;;;;;5052313;28;19929;-83
2023/08/08 12:47:32;;;;;;;;;;;21.60;59.00;;;;;;5047062;28;19940;-83
2023/08/08 12:49:58;;;;;;;;;;;21.60;59.10;;;;;;5052828;28;19929;-81
2023/08/08 12:52:26;;;;;;;;;;;21.60;58.50;;;;;;5055000;28;19929;-80
2023/08/08 12:54:53;;;;;;;;;;;21.70;59.00;;;;;;5059921;28;19929;-84
2023/08/08 12:57:19;;;;;;;;;;;21.70;58.80;;;;;;5060085;28;19928;-84
2023/08/08 12:59:46;;;;;;;;;;;21.70;58.90;;;;;;5053624;28;19928;-84
2023/08/08 13:02:13;;;;;;;;;;;21.70;59.10;;;;;;5051597;28;20019;-82
2023/08/08 13:04:39;;;;;;;;;;;21.80;58.60;;;;;;5059293;28;20023;-82
2023/08/08 13:07:07;;;;;;;;;;;21.80;58.40;;;;;;5056527;28;19929;-83
2023/08/08 13:09:35;;;;;;;;;;;21.80;58.40;;;;;;5061973;28;19928;-85
2023/08/08 13:12:01;;;;;;;;;;;21.90;58.30;;;;;;5064052;28;20409;-83
2023/08/08 13:14:28;;;;;;;;;;;21.90;58.40;;;;;;5057958;28;20221;-84
2023/08/08 13:16:54;;;;;;;;;;;22.00;57.90;;;;;;5057436;28;19936;-82
2023/08/08 13:19:24;;;;;;;;;;;22.00;57.70;;;;;;5061021;28;20474;-83
2023/08/08 13:21:51;;;;;;;;;;;22.00;57.70;;;;;;5061117;28;20241;-81
2023/08/08 13:24:17;;;;;;;;;;;22.10;57.00;;;;;;5064102;28;20047;-85
2023/08/08 13:26:45;;;;;;;;;;;22.20;57.20;;;;;;5061996;28;19929;-82
2023/08/08 13:29:12;;;;;;;;;;;22.20;56.90;;;;;;5060305;28;19936;-85
2023/08/08 13:31:39;;;;;;;;;;;22.30;57.30;;;;;;5060326;28;19929;-82
2023/08/08 13:34:05;;;;;;;;;;;22.30;56.70;;;;;;5053081;28;19939;-79
2023/08/08 13:36:32;;;;;;;;;;;22.30;56.70;;;;;;5049930;28;20553;-80
2023/08/08 13:38:59;;;;;;;;;;;22.30;56.80;;;;;;5055390;28;20401;-79
2023/08/08 13:41:26;;;;;;;;;;;22.40;56.10;;;;;;5050597;28;19940;-79
2023/08/08 13:43:54;;;;;;;;;;;22.40;56.10;;;;;;5054434;28;19936;-79
2023/08/08 13:46:20;;;;;;;;;;;22.40;56.20;;;;;;5050361;28;19929;-79
2023/08/08 13:48:47;;;;;;;;;;;22.50;56.00;;;;;;5048125;28;19940;-81
2023/08/08 13:51:13;;;;;;;;;;;22.50;56.60;;;;;;5049870;28;19929;-79
2023/08/08 13:53:40;;;;;;;;;;;22.50;56.30;;;;;;5052301;28;19929;-79
2023/08/08 13:56:06;;;;;;;;;;;22.50;56.20;;;;;;5053594;28;20731;-80
2023/08/08 13:58:33;;;;;;;;;;;22.50;56.00;;;;;;5049476;28;20421;-79
2023/08/08 14:01:01;;;;;;;;;;;22.50;55.50;;;;;;5053461;28;20030;-78
2023/08/08 14:03:28;;;;;;;;;;;22.50;55.90;;;;;;5048459;28;20351;-80
2023/08/08 14:05:54;;;;;;;;;;;22.50;55.60;;;;;;5051425;28;20984;-79
2023/08/08 14:08:21;;;;;;;;;;;22.50;56.00;;;;;;5054292;28;19939;-80
2023/08/08 14:10:47;;;;;;;;;;;22.50;55.60;;;;;;5059407;28;19932;-79
2023/08/08 14:13:14;;;;;;;;;;;22.50;55.70;;;;;;5056586;28;19928;-79
2023/08/08 14:15:41;;;;;;;;;;;22.60;55.60;;;;;;5052091;28;20577;-80